sensor_id;sensor_type;location;lat;lon;timestamp;P1;durP1;ratioP1;P2;durP2;ratioP2
15181;SDS011;7692;50.602;8.692;2024-02-26T00:01:07;2.20;;;2.20;;
15181;SDS011;7692;50.602;8.692;2024-02-26T00:03:35;2.30;;;2.30;;
15181;SDS011;7692;50.602;8.692;2024-02-26T00:06:03;2.20;;;2.20;;
15181;SDS011;7692;50.602;8.692;2024-02-26T00:08:32;2.20;;;2.20;;
15181;SDS011;7692;50.602;8.692;2024-02-26T00:11:00;2.30;;;2.30;;
15181;SDS011;7692;50.602;8.692;2024-02-26T00:13:30;2.20;;;2.20;;
15181;SDS011;7692;50.602;8.692;2024-02-26T00:15:58;2.20;;;2.20;;
15181;SDS011;7692;50.602;8.692;2024-02-26T00:18:26;2.10;;;2.10;;
15181;SDS011;7692;50.602;8.692;2024-02-26T00:20:54;2.30;;;2.30;;
15181;SDS011;7692;50.602;8.692;2024-02-26T00:23:23;2.23;;;2.23;;
15181;SDS011;7692;50.602;8.692;2024-02-26T00:25:50;2.30;;;2.30;;
15181;SDS011;7692;50.602;8.692;2024-02-26T00:28:18;2.17;;;2.17;;
15181;SDS011;7692;50.602;8.692;2024-02-26T00:30:48;2.20;;;2.20;;
15181;SDS011;7692;50.602;8.692;2024-02-26T00:33:17;2.20;;;2.20;;
15181;SDS011;7692;50.602;8.692;2024-02-26T00:35:45;2.23;;;2.23;;
15181;SDS011;7692;50.602;8.692;2024-02-26T00:38:13;2.20;;;2.20;;
15181;SDS011;7692;50.602;8.692;2024-02-26T00:40:41;2.10;;;2.10;;
15181;SDS011;7692;50.602;8.692;2024-02-26T00:43:09;2.30;;;2.30;;
15181;SDS011;7692;50.602;8.692;2024-02-26T00:45:37;2.30;;;2.30;;
15181;SDS011;7692;50.602;8.692;2024-02-26T00:48:07;2.20;;;2.20;;
15181;SDS011;7692;50.602;8.692;2024-02-26T00:50:35;2.20;;;2.20;;
15181;SDS011;7692;50.602;8.692;2024-02-26T00:53:03;2.30;;;2.30;;
15181;SDS011;7692;50.602;8.692;2024-02-26T00:55:31;2.50;;;2.50;;
15181;SDS011;7692;50.602;8.692;2024-02-26T00:57:59;2.10;;;2.10;;
15181;SDS011;7692;50.602;8.692;2024-02-26T01:00:27;2.30;;;2.30;;
15181;SDS011;7692;50.602;8.692;2024-02-26T01:02:55;2.17;;;2.17;;
15181;SDS011;7692;50.602;8.692;2024-02-26T01:05:24;2.20;;;2.20;;
15181;SDS011;7692;50.602;8.692;2024-02-26T01:07:52;2.10;;;2.10;;
15181;SDS011;7692;50.602;8.692;2024-02-26T01:10:20;2.10;;;2.10;;
15181;SDS011;7692;50.602;8.692;2024-02-26T01:12:48;2.10;;;2.10;;
15181;SDS011;7692;50.602;8.692;2024-02-26T01:15:16;2.10;;;2.10;;
15181;SDS011;7692;50.602;8.692;2024-02-26T01:17:48;2.30;;;2.30;;
15181;SDS011;7692;50.602;8.692;2024-02-26T01:20:16;2.20;;;2.20;;
15181;SDS011;7692;50.602;8.692;2024-02-26T01:22:45;2.20;;;2.20;;
15181;SDS011;7692;50.602;8.692;2024-02-26T01:25:13;2.10;;;2.10;;
15181;SDS011;7692;50.602;8.692;2024-02-26T01:27:42;2.20;;;2.20;;
15181;SDS011;7692;50.602;8.692;2024-02-26T01:30:10;2.17;;;2.17;;
15181;SDS011;7692;50.602;8.692;2024-02-26T01:32:39;2.20;;;2.20;;
15181;SDS011;7692;50.602;8.692;2024-02-26T01:35:07;2.10;;;2.10;;
15181;SDS011;7692;50.602;8.692;2024-02-26T01:37:38;2.10;;;2.10;;
15181;SDS011;7692;50.602;8.692;2024-02-26T01:40:08;2.10;;;2.10;;
15181;SDS011;7692;50.602;8.692;2024-02-26T01:42:37;2.10;;;2.10;;
15181;SDS011;7692;50.602;8.692;2024-02-26T01:45:07;2.00;;;2.00;;
15181;SDS011;7692;50.602;8.692;2024-02-26T01:47:48;2.10;;;2.10;;
15181;SDS011;7692;50.602;8.692;2024-02-26T01:50:18;2.10;;;2.10;;
15181;SDS011;7692;50.602;8.692;2024-02-26T01:52:46;2.20;;;2.20;;
15181;SDS011;7692;50.602;8.692;2024-02-26T01:55:18;2.10;;;2.10;;
15181;SDS011;7692;50.602;8.692;2024-02-26T01:57:48;2.20;;;2.20;;
15181;SDS011;7692;50.602;8.692;2024-02-26T02:00:18;2.23;;;2.23;;
15181;SDS011;7692;50.602;8.692;2024-02-26T02:02:49;2.20;;;2.20;;
15181;SDS011;7692;50.602;8.692;2024-02-26T02:05:18;2.10;;;2.10;;
15181;SDS011;7692;50.602;8.692;2024-02-26T02:07:48;2.13;;;2.13;;
15181;SDS011;7692;50.602;8.692;2024-02-26T02:10:17;2.20;;;2.20;;
15181;SDS011;7692;50.602;8.692;2024-02-26T02:12:49;2.37;;;2.37;;
15181;SDS011;7692;50.602;8.692;2024-02-26T02:15:17;2.10;;;2.10;;
15181;SDS011;7692;50.602;8.692;2024-02-26T02:17:45;2.27;;;2.27;;
15181;SDS011;7692;50.602;8.692;2024-02-26T02:20:17;2.10;;;2.10;;
15181;SDS011;7692;50.602;8.692;2024-02-26T02:22:47;2.30;;;2.30;;
15181;SDS011;7692;50.602;8.692;2024-02-26T02:25:15;2.23;;;2.23;;
15181;SDS011;7692;50.602;8.692;2024-02-26T02:27:43;2.23;;;2.23;;
15181;SDS011;7692;50.602;8.692;2024-02-26T02:30:12;2.30;;;2.30;;
15181;SDS011;7692;50.602;8.692;2024-02-26T02:32:41;2.10;;;2.10;;
15181;SDS011;7692;50.602;8.692;2024-02-26T02:35:10;2.20;;;2.20;;
15181;SDS011;7692;50.602;8.692;2024-02-26T02:37:38;2.20;;;2.20;;
15181;SDS011;7692;50.602;8.692;2024-02-26T02:40:07;2.20;;;2.20;;
15181;SDS011;7692;50.602;8.692;2024-02-26T02:42:36;2.20;;;2.20;;
15181;SDS011;7692;50.602;8.692;2024-02-26T02:45:04;2.50;;;2.50;;
15181;SDS011;7692;50.602;8.692;2024-02-26T02:47:35;2.10;;;2.10;;
15181;SDS011;7692;50.602;8.692;2024-02-26T02:50:04;2.30;;;2.30;;
15181;SDS011;7692;50.602;8.692;2024-02-26T02:52:32;2.10;;;2.10;;
15181;SDS011;7692;50.602;8.692;2024-02-26T02:55:01;2.10;;;2.10;;
15181;SDS011;7692;50.602;8.692;2024-02-26T02:57:31;2.20;;;2.20;;
15181;SDS011;7692;50.602;8.692;2024-02-26T03:00:00;2.20;;;2.20;;
15181;SDS011;7692;50.602;8.692;2024-02-26T03:02:30;2.13;;;2.13;;
15181;SDS011;7692;50.602;8.692;2024-02-26T03:04:58;1.87;;;1.87;;
15181;SDS011;7692;50.602;8.692;2024-02-26T03:07:26;2.10;;;2.10;;
15181;SDS011;7692;50.602;8.692;2024-02-26T03:09:54;2.10;;;2.10;;
15181;SDS011;7692;50.602;8.692;2024-02-26T03:12:22;2.10;;;2.10;;
15181;SDS011;7692;50.602;8.692;2024-02-26T03:14:51;2.20;;;2.20;;
15181;SDS011;7692;50.602;8.692;2024-02-26T03:17:20;2.27;;;2.27;;
15181;SDS011;7692;50.602;8.692;2024-02-26T03:19:51;2.20;;;2.20;;
15181;SDS011;7692;50.602;8.692;2024-02-26T03:22:20;2.20;;;2.20;;
15181;SDS011;7692;50.602;8.692;2024-02-26T03:24:48;2.20;;;2.20;;
15181;SDS011;7692;50.602;8.692;2024-02-26T03:27:16;2.20;;;2.20;;
15181;SDS011;7692;50.602;8.692;2024-02-26T03:29:44;2.20;;;2.20;;
15181;SDS011;7692;50.602;8.692;2024-02-26T03:32:14;2.10;;;2.10;;
15181;SDS011;7692;50.602;8.692;2024-02-26T03:34:41;2.10;;;2.10;;
15181;SDS011;7692;50.602;8.692;2024-02-26T03:37:09;2.10;;;2.10;;
15181;SDS011;7692;50.602;8.692;2024-02-26T03:39:37;2.10;;;2.10;;
15181;SDS011;7692;50.602;8.692;2024-02-26T03:42:05;2.20;;;2.20;;
15181;SDS011;7692;50.602;8.692;2024-02-26T03:44:34;2.00;;;2.00;;
15181;SDS011;7692;50.602;8.692;2024-02-26T03:47:02;2.10;;;2.10;;
15181;SDS011;7692;50.602;8.692;2024-02-26T03:49:32;2.10;;;2.10;;
15181;SDS011;7692;50.602;8.692;2024-02-26T03:52:00;2.10;;;2.10;;
15181;SDS011;7692;50.602;8.692;2024-02-26T03:54:27;2.10;;;2.10;;
15181;SDS011;7692;50.602;8.692;2024-02-26T03:56:55;2.23;;;2.23;;
15181;SDS011;7692;50.602;8.692;2024-02-26T03:59:23;2.10;;;2.10;;
15181;SDS011;7692;50.602;8.692;2024-02-26T04:01:52;2.10;;;2.10;;
15181;SDS011;7692;50.602;8.692;2024-02-26T04:04:20;2.10;;;2.10;;
15181;SDS011;7692;50.602;8.692;2024-02-26T04:06:50;2.10;;;2.10;;
15181;SDS011;7692;50.602;8.692;2024-02-26T04:09:18;2.10;;;2.10;;
15181;SDS011;7692;50.602;8.692;2024-02-26T04:11:46;2.20;;;2.20;;
15181;SDS011;7692;50.602;8.692;2024-02-26T04:14:14;2.00;;;2.00;;
15181;SDS011;7692;50.602;8.692;2024-02-26T04:16:43;2.00;;;2.00;;
15181;SDS011;7692;50.602;8.692;2024-02-26T04:19:10;2.00;;;2.00;;
15181;SDS011;7692;50.602;8.692;2024-02-26T04:21:40;2.30;;;2.30;;
15181;SDS011;7692;50.602;8.692;2024-02-26T04:24:10;2.00;;;2.00;;
15181;SDS011;7692;50.602;8.692;2024-02-26T04:26:39;2.20;;;2.20;;
15181;SDS011;7692;50.602;8.692;2024-02-26T04:29:07;2.00;;;2.00;;
15181;SDS011;7692;50.602;8.692;2024-02-26T04:31:36;2.10;;;2.10;;
15181;SDS011;7692;50.602;8.692;2024-02-26T04:34:05;2.10;;;2.10;;
15181;SDS011;7692;50.602;8.692;2024-02-26T04:36:35;2.10;;;2.10;;
15181;SDS011;7692;50.602;8.692;2024-02-26T04:39:03;1.90;;;1.90;;
15181;SDS011;7692;50.602;8.692;2024-02-26T04:41:32;2.00;;;2.00;;
15181;SDS011;7692;50.602;8.692;2024-02-26T04:44:00;2.10;;;2.10;;
15181;SDS011;7692;50.602;8.692;2024-02-26T04:46:29;2.10;;;2.10;;
15181;SDS011;7692;50.602;8.692;2024-02-26T04:48:57;2.10;;;2.10;;
15181;SDS011;7692;50.602;8.692;2024-02-26T04:51:26;2.10;;;2.10;;
15181;SDS011;7692;50.602;8.692;2024-02-26T04:53:53;2.10;;;2.10;;
15181;SDS011;7692;50.602;8.692;2024-02-26T04:56:21;2.10;;;2.10;;
15181;SDS011;7692;50.602;8.692;2024-02-26T04:58:51;2.10;;;2.10;;
15181;SDS011;7692;50.602;8.692;2024-02-26T05:01:18;2.00;;;2.00;;
15181;SDS011;7692;50.602;8.692;2024-02-26T05:03:47;2.00;;;2.00;;
15181;SDS011;7692;50.602;8.692;2024-02-26T05:06:15;2.00;;;2.00;;
15181;SDS011;7692;50.602;8.692;2024-02-26T05:08:43;2.10;;;2.10;;
15181;SDS011;7692;50.602;8.692;2024-02-26T05:11:12;2.00;;;2.00;;
15181;SDS011;7692;50.602;8.692;2024-02-26T05:13:40;2.30;;;2.30;;
15181;SDS011;7692;50.602;8.692;2024-02-26T05:16:10;2.00;;;2.00;;
15181;SDS011;7692;50.602;8.692;2024-02-26T05:18:38;2.00;;;2.00;;
15181;SDS011;7692;50.602;8.692;2024-02-26T05:21:06;2.00;;;2.00;;
15181;SDS011;7692;50.602;8.692;2024-02-26T05:23:34;2.20;;;2.20;;
15181;SDS011;7692;50.602;8.692;2024-02-26T05:26:02;2.10;;;2.10;;
15181;SDS011;7692;50.602;8.692;2024-02-26T05:28:31;2.00;;;2.00;;
15181;SDS011;7692;50.602;8.692;2024-02-26T05:30:59;2.13;;;2.13;;
15181;SDS011;7692;50.602;8.692;2024-02-26T05:33:28;2.00;;;2.00;;
15181;SDS011;7692;50.602;8.692;2024-02-26T05:35:56;2.10;;;2.10;;
15181;SDS011;7692;50.602;8.692;2024-02-26T05:38:30;1.90;;;1.90;;
15181;SDS011;7692;50.602;8.692;2024-02-26T05:40:58;2.00;;;2.00;;
15181;SDS011;7692;50.602;8.692;2024-02-26T05:43:27;2.00;;;2.00;;
15181;SDS011;7692;50.602;8.692;2024-02-26T05:45:55;2.00;;;2.00;;
15181;SDS011;7692;50.602;8.692;2024-02-26T05:48:23;2.10;;;2.10;;
15181;SDS011;7692;50.602;8.692;2024-02-26T05:50:53;2.00;;;2.00;;
15181;SDS011;7692;50.602;8.692;2024-02-26T05:53:21;2.20;;;2.20;;
15181;SDS011;7692;50.602;8.692;2024-02-26T05:55:49;2.30;;;2.30;;
15181;SDS011;7692;50.602;8.692;2024-02-26T05:58:17;1.90;;;1.90;;
15181;SDS011;7692;50.602;8.692;2024-02-26T06:00:45;2.00;;;2.00;;
15181;SDS011;7692;50.602;8.692;2024-02-26T06:03:14;2.10;;;2.10;;
15181;SDS011;7692;50.602;8.692;2024-02-26T06:05:43;2.00;;;2.00;;
15181;SDS011;7692;50.602;8.692;2024-02-26T06:08:13;2.00;;;2.00;;
15181;SDS011;7692;50.602;8.692;2024-02-26T06:10:41;2.03;;;2.03;;
15181;SDS011;7692;50.602;8.692;2024-02-26T06:13:09;2.00;;;2.00;;
15181;SDS011;7692;50.602;8.692;2024-02-26T06:15:37;2.00;;;2.00;;
15181;SDS011;7692;50.602;8.692;2024-02-26T06:18:08;2.10;;;2.10;;
15181;SDS011;7692;50.602;8.692;2024-02-26T06:20:36;2.00;;;2.00;;
15181;SDS011;7692;50.602;8.692;2024-02-26T06:23:04;2.00;;;2.00;;
15181;SDS011;7692;50.602;8.692;2024-02-26T06:25:34;2.00;;;2.00;;
15181;SDS011;7692;50.602;8.692;2024-02-26T06:28:02;2.00;;;2.00;;
15181;SDS011;7692;50.602;8.692;2024-02-26T06:30:31;2.00;;;2.00;;
15181;SDS011;7692;50.602;8.692;2024-02-26T06:32:59;2.00;;;2.00;;
15181;SDS011;7692;50.602;8.692;2024-02-26T06:35:27;2.00;;;2.00;;
15181;SDS011;7692;50.602;8.692;2024-02-26T06:37:55;2.07;;;2.07;;
15181;SDS011;7692;50.602;8.692;2024-02-26T06:40:23;2.00;;;2.00;;
15181;SDS011;7692;50.602;8.692;2024-02-26T06:42:53;2.00;;;2.00;;
15181;SDS011;7692;50.602;8.692;2024-02-26T06:45:21;2.00;;;2.00;;
15181;SDS011;7692;50.602;8.692;2024-02-26T06:47:49;2.00;;;2.00;;
15181;SDS011;7692;50.602;8.692;2024-02-26T06:50:17;2.00;;;2.00;;
15181;SDS011;7692;50.602;8.692;2024-02-26T06:52:45;2.00;;;2.00;;
15181;SDS011;7692;50.602;8.692;2024-02-26T06:55:14;1.80;;;1.80;;
15181;SDS011;7692;50.602;8.692;2024-02-26T06:57:42;2.10;;;2.10;;
15181;SDS011;7692;50.602;8.692;2024-02-26T07:00:12;2.10;;;2.10;;
15181;SDS011;7692;50.602;8.692;2024-02-26T07:02:43;2.00;;;2.00;;
15181;SDS011;7692;50.602;8.692;2024-02-26T07:05:11;2.00;;;2.00;;
15181;SDS011;7692;50.602;8.692;2024-02-26T07:07:39;2.07;;;2.07;;
15181;SDS011;7692;50.602;8.692;2024-02-26T07:10:08;2.20;;;2.20;;
15181;SDS011;7692;50.602;8.692;2024-02-26T07:12:38;1.90;;;1.90;;
15181;SDS011;7692;50.602;8.692;2024-02-26T07:15:13;2.00;;;2.00;;
15181;SDS011;7692;50.602;8.692;2024-02-26T07:17:42;2.00;;;2.00;;
15181;SDS011;7692;50.602;8.692;2024-02-26T07:20:14;2.07;;;2.07;;
15181;SDS011;7692;50.602;8.692;2024-02-26T07:22:44;1.90;;;1.90;;
15181;SDS011;7692;50.602;8.692;2024-02-26T07:25:12;2.00;;;2.00;;
15181;SDS011;7692;50.602;8.692;2024-02-26T07:27:42;1.80;;;1.80;;
15181;SDS011;7692;50.602;8.692;2024-02-26T07:30:11;1.90;;;1.90;;
15181;SDS011;7692;50.602;8.692;2024-02-26T07:32:42;1.90;;;1.90;;
15181;SDS011;7692;50.602;8.692;2024-02-26T07:35:15;1.90;;;1.90;;
15181;SDS011;7692;50.602;8.692;2024-02-26T07:37:44;1.90;;;1.90;;
15181;SDS011;7692;50.602;8.692;2024-02-26T07:40:15;1.70;;;1.70;;
15181;SDS011;7692;50.602;8.692;2024-02-26T07:42:43;1.90;;;1.90;;
15181;SDS011;7692;50.602;8.692;2024-02-26T07:45:11;1.90;;;1.90;;
15181;SDS011;7692;50.602;8.692;2024-02-26T07:47:43;1.90;;;1.90;;
15181;SDS011;7692;50.602;8.692;2024-02-26T07:50:11;1.90;;;1.90;;
15181;SDS011;7692;50.602;8.692;2024-02-26T07:52:39;2.20;;;2.20;;
15181;SDS011;7692;50.602;8.692;2024-02-26T07:55:08;2.20;;;2.20;;
15181;SDS011;7692;50.602;8.692;2024-02-26T07:57:36;1.80;;;1.80;;
15181;SDS011;7692;50.602;8.692;2024-02-26T08:00:05;1.90;;;1.90;;
15181;SDS011;7692;50.602;8.692;2024-02-26T08:02:36;2.00;;;2.00;;
15181;SDS011;7692;50.602;8.692;2024-02-26T08:05:06;2.00;;;2.00;;
15181;SDS011;7692;50.602;8.692;2024-02-26T08:07:34;1.83;;;1.83;;
15181;SDS011;7692;50.602;8.692;2024-02-26T08:10:02;1.90;;;1.90;;
15181;SDS011;7692;50.602;8.692;2024-02-26T08:12:31;2.00;;;2.00;;
15181;SDS011;7692;50.602;8.692;2024-02-26T08:14:59;1.90;;;1.90;;
15181;SDS011;7692;50.602;8.692;2024-02-26T08:17:27;1.77;;;1.77;;
15181;SDS011;7692;50.602;8.692;2024-02-26T08:19:55;1.80;;;1.80;;
15181;SDS011;7692;50.602;8.692;2024-02-26T08:22:25;1.80;;;1.80;;
15181;SDS011;7692;50.602;8.692;2024-02-26T08:24:53;2.30;;;2.30;;
15181;SDS011;7692;50.602;8.692;2024-02-26T08:27:21;1.90;;;1.90;;
15181;SDS011;7692;50.602;8.692;2024-02-26T08:29:51;1.90;;;1.90;;
15181;SDS011;7692;50.602;8.692;2024-02-26T08:32:19;1.83;;;1.83;;
15181;SDS011;7692;50.602;8.692;2024-02-26T08:34:47;1.90;;;1.90;;
15181;SDS011;7692;50.602;8.692;2024-02-26T08:37:16;1.80;;;1.80;;
15181;SDS011;7692;50.602;8.692;2024-02-26T08:39:45;2.03;;;2.03;;
15181;SDS011;7692;50.602;8.692;2024-02-26T08:42:16;1.90;;;1.90;;
15181;SDS011;7692;50.602;8.692;2024-02-26T08:44:44;2.27;;;2.27;;
15181;SDS011;7692;50.602;8.692;2024-02-26T08:47:12;1.90;;;1.90;;
15181;SDS011;7692;50.602;8.692;2024-02-26T08:49:42;1.80;;;1.80;;
15181;SDS011;7692;50.602;8.692;2024-02-26T08:52:10;1.90;;;1.90;;
15181;SDS011;7692;50.602;8.692;2024-02-26T08:54:42;2.10;;;2.10;;
15181;SDS011;7692;50.602;8.692;2024-02-26T08:57:11;1.90;;;1.90;;
15181;SDS011;7692;50.602;8.692;2024-02-26T08:59:39;1.70;;;1.70;;
15181;SDS011;7692;50.602;8.692;2024-02-26T09:02:09;1.83;;;1.83;;
15181;SDS011;7692;50.602;8.692;2024-02-26T09:04:37;1.70;;;1.70;;
15181;SDS011;7692;50.602;8.692;2024-02-26T09:07:07;1.60;;;1.60;;
15181;SDS011;7692;50.602;8.692;2024-02-26T09:09:35;1.90;;;1.90;;
15181;SDS011;7692;50.602;8.692;2024-02-26T09:12:03;2.10;;;2.10;;
15181;SDS011;7692;50.602;8.692;2024-02-26T09:14:33;1.90;;;1.90;;
15181;SDS011;7692;50.602;8.692;2024-02-26T09:17:02;1.90;;;1.90;;
15181;SDS011;7692;50.602;8.692;2024-02-26T09:19:32;1.90;;;1.90;;
15181;SDS011;7692;50.602;8.692;2024-02-26T09:22:00;1.97;;;1.97;;
15181;SDS011;7692;50.602;8.692;2024-02-26T09:24:28;1.80;;;1.80;;
15181;SDS011;7692;50.602;8.692;2024-02-26T09:26:56;2.00;;;2.00;;
15181;SDS011;7692;50.602;8.692;2024-02-26T09:29:24;1.60;;;1.60;;
15181;SDS011;7692;50.602;8.692;2024-02-26T09:31:54;1.80;;;1.80;;
15181;SDS011;7692;50.602;8.692;2024-02-26T09:34:22;1.90;;;1.90;;
15181;SDS011;7692;50.602;8.692;2024-02-26T09:36:50;2.00;;;2.00;;
15181;SDS011;7692;50.602;8.692;2024-02-26T09:39:21;2.00;;;2.00;;
15181;SDS011;7692;50.602;8.692;2024-02-26T09:41:49;2.00;;;2.00;;
15181;SDS011;7692;50.602;8.692;2024-02-26T09:44:18;2.00;;;2.00;;
15181;SDS011;7692;50.602;8.692;2024-02-26T09:46:47;1.83;;;1.83;;
15181;SDS011;7692;50.602;8.692;2024-02-26T09:49:19;1.90;;;1.90;;
15181;SDS011;7692;50.602;8.692;2024-02-26T09:51:51;1.60;;;1.60;;
15181;SDS011;7692;50.602;8.692;2024-02-26T09:54:21;2.10;;;2.10;;
15181;SDS011;7692;50.602;8.692;2024-02-26T09:56:52;1.90;;;1.90;;
15181;SDS011;7692;50.602;8.692;2024-02-26T09:59:33;1.60;;;1.60;;
15181;SDS011;7692;50.602;8.692;2024-02-26T10:02:11;2.00;;;2.00;;
15181;SDS011;7692;50.602;8.692;2024-02-26T10:04:41;1.70;;;1.70;;
15181;SDS011;7692;50.602;8.692;2024-02-26T10:07:16;1.50;;;1.50;;
15181;SDS011;7692;50.602;8.692;2024-02-26T10:09:44;1.70;;;1.70;;
15181;SDS011;7692;50.602;8.692;2024-02-26T10:12:12;1.80;;;1.80;;
15181;SDS011;7692;50.602;8.692;2024-02-26T10:14:43;1.90;;;1.90;;
15181;SDS011;7692;50.602;8.692;2024-02-26T10:17:11;1.70;;;1.70;;
15181;SDS011;7692;50.602;8.692;2024-02-26T10:19:41;1.83;;;1.83;;
15181;SDS011;7692;50.602;8.692;2024-02-26T10:22:09;1.50;;;1.50;;
15181;SDS011;7692;50.602;8.692;2024-02-26T10:24:37;1.60;;;1.60;;
15181;SDS011;7692;50.602;8.692;2024-02-26T10:27:07;1.90;;;1.90;;
15181;SDS011;7692;50.602;8.692;2024-02-26T10:29:36;1.80;;;1.80;;
15181;SDS011;7692;50.602;8.692;2024-02-26T10:32:05;1.60;;;1.60;;
15181;SDS011;7692;50.602;8.692;2024-02-26T10:34:34;1.83;;;1.83;;
15181;SDS011;7692;50.602;8.692;2024-02-26T10:37:05;1.60;;;1.60;;
15181;SDS011;7692;50.602;8.692;2024-02-26T10:39:35;2.00;;;2.00;;
15181;SDS011;7692;50.602;8.692;2024-02-26T10:42:04;1.60;;;1.60;;
15181;SDS011;7692;50.602;8.692;2024-02-26T10:44:36;1.83;;;1.83;;
15181;SDS011;7692;50.602;8.692;2024-02-26T10:47:10;1.50;;;1.50;;
15181;SDS011;7692;50.602;8.692;2024-02-26T10:49:44;1.60;;;1.60;;
15181;SDS011;7692;50.602;8.692;2024-02-26T10:52:15;1.70;;;1.70;;
15181;SDS011;7692;50.602;8.692;2024-02-26T10:54:49;1.80;;;1.80;;
15181;SDS011;7692;50.602;8.692;2024-02-26T10:57:24;1.70;;;1.70;;
15181;SDS011;7692;50.602;8.692;2024-02-26T10:59:53;1.80;;;1.80;;
15181;SDS011;7692;50.602;8.692;2024-02-26T11:02:22;1.70;;;1.70;;
15181;SDS011;7692;50.602;8.692;2024-02-26T11:04:50;1.70;;;1.70;;
15181;SDS011;7692;50.602;8.692;2024-02-26T11:07:20;1.70;;;1.70;;
15181;SDS011;7692;50.602;8.692;2024-02-26T11:09:49;1.90;;;1.90;;
15181;SDS011;7692;50.602;8.692;2024-02-26T11:12:19;1.90;;;1.90;;
15181;SDS011;7692;50.602;8.692;2024-02-26T11:14:50;1.50;;;1.50;;
15181;SDS011;7692;50.602;8.692;2024-02-26T11:17:21;1.60;;;1.60;;
15181;SDS011;7692;50.602;8.692;2024-02-26T11:19:50;1.60;;;1.60;;
15181;SDS011;7692;50.602;8.692;2024-02-26T11:22:21;1.40;;;1.40;;
15181;SDS011;7692;50.602;8.692;2024-02-26T11:24:51;1.70;;;1.70;;
15181;SDS011;7692;50.602;8.692;2024-02-26T11:27:21;1.60;;;1.60;;
15181;SDS011;7692;50.602;8.692;2024-02-26T11:29:56;1.50;;;1.50;;
15181;SDS011;7692;50.602;8.692;2024-02-26T11:32:27;1.80;;;1.80;;
15181;SDS011;7692;50.602;8.692;2024-02-26T11:34:59;1.57;;;1.57;;
15181;SDS011;7692;50.602;8.692;2024-02-26T11:37:29;1.20;;;1.20;;
15181;SDS011;7692;50.602;8.692;2024-02-26T11:40:01;1.80;;;1.80;;
15181;SDS011;7692;50.602;8.692;2024-02-26T11:42:29;1.43;;;1.43;;
15181;SDS011;7692;50.602;8.692;2024-02-26T11:44:59;1.53;;;1.53;;
15181;SDS011;7692;50.602;8.692;2024-02-26T11:47:29;1.30;;;1.30;;
15181;SDS011;7692;50.602;8.692;2024-02-26T11:49:57;1.70;;;1.70;;
15181;SDS011;7692;50.602;8.692;2024-02-26T11:52:25;1.30;;;1.30;;
15181;SDS011;7692;50.602;8.692;2024-02-26T11:54:56;1.70;;;1.70;;
15181;SDS011;7692;50.602;8.692;2024-02-26T11:57:25;1.60;;;1.60;;
15181;SDS011;7692;50.602;8.692;2024-02-26T11:59:55;1.10;;;1.10;;
15181;SDS011;7692;50.602;8.692;2024-02-26T12:05:30;1.30;;;1.30;;
15181;SDS011;7692;50.602;8.692;2024-02-26T12:08:00;1.40;;;1.40;;
15181;SDS011;7692;50.602;8.692;2024-02-26T12:10:36;1.60;;;1.60;;
15181;SDS011;7692;50.602;8.692;2024-02-26T12:13:11;1.40;;;1.40;;
15181;SDS011;7692;50.602;8.692;2024-02-26T12:15:45;1.30;;;1.30;;
15181;SDS011;7692;50.602;8.692;2024-02-26T12:18:22;1.40;;;1.40;;
15181;SDS011;7692;50.602;8.692;2024-02-26T12:20:57;1.50;;;1.50;;
15181;SDS011;7692;50.602;8.692;2024-02-26T12:23:27;1.40;;;1.40;;
15181;SDS011;7692;50.602;8.692;2024-02-26T12:25:59;1.20;;;1.20;;
15181;SDS011;7692;50.602;8.692;2024-02-26T12:28:33;1.20;;;1.20;;
15181;SDS011;7692;50.602;8.692;2024-02-26T12:31:01;1.13;;;1.13;;
15181;SDS011;7692;50.602;8.692;2024-02-26T12:33:29;1.27;;;1.27;;
15181;SDS011;7692;50.602;8.692;2024-02-26T12:35:59;1.40;;;1.40;;
15181;SDS011;7692;50.602;8.692;2024-02-26T12:38:27;1.40;;;1.40;;
15181;SDS011;7692;50.602;8.692;2024-02-26T12:40:56;1.60;;;1.60;;
15181;SDS011;7692;50.602;8.692;2024-02-26T12:43:25;1.60;;;1.60;;
15181;SDS011;7692;50.602;8.692;2024-02-26T12:45:53;1.30;;;1.30;;
15181;SDS011;7692;50.602;8.692;2024-02-26T12:48:22;1.20;;;1.20;;
15181;SDS011;7692;50.602;8.692;2024-02-26T12:50:50;1.40;;;1.40;;
15181;SDS011;7692;50.602;8.692;2024-02-26T12:53:18;1.60;;;1.60;;
15181;SDS011;7692;50.602;8.692;2024-02-26T12:55:46;1.60;;;1.60;;
15181;SDS011;7692;50.602;8.692;2024-02-26T12:58:15;1.80;;;1.80;;
15181;SDS011;7692;50.602;8.692;2024-02-26T13:00:44;1.27;;;1.27;;
15181;SDS011;7692;50.602;8.692;2024-02-26T13:03:13;1.50;;;1.50;;
15181;SDS011;7692;50.602;8.692;2024-02-26T13:05:41;1.20;;;1.20;;
15181;SDS011;7692;50.602;8.692;2024-02-26T13:08:10;1.30;;;1.30;;
15181;SDS011;7692;50.602;8.692;2024-02-26T13:10:45;1.40;;;1.40;;
15181;SDS011;7692;50.602;8.692;2024-02-26T13:13:14;1.60;;;1.60;;
15181;SDS011;7692;50.602;8.692;2024-02-26T13:15:45;1.20;;;1.20;;
15181;SDS011;7692;50.602;8.692;2024-02-26T13:18:13;1.60;;;1.60;;
15181;SDS011;7692;50.602;8.692;2024-02-26T13:20:42;1.27;;;1.27;;
15181;SDS011;7692;50.602;8.692;2024-02-26T13:23:11;1.20;;;1.20;;
15181;SDS011;7692;50.602;8.692;2024-02-26T13:25:39;1.47;;;1.47;;
15181;SDS011;7692;50.602;8.692;2024-02-26T13:28:13;1.20;;;1.20;;
15181;SDS011;7692;50.602;8.692;2024-02-26T13:30:50;1.60;;;1.60;;
15181;SDS011;7692;50.602;8.692;2024-02-26T13:33:19;1.40;;;1.40;;
15181;SDS011;7692;50.602;8.692;2024-02-26T13:35:49;1.50;;;1.50;;
15181;SDS011;7692;50.602;8.692;2024-02-26T13:38:17;1.30;;;1.30;;
15181;SDS011;7692;50.602;8.692;2024-02-26T13:40:45;1.20;;;1.20;;
15181;SDS011;7692;50.602;8.692;2024-02-26T13:43:14;1.20;;;1.20;;
15181;SDS011;7692;50.602;8.692;2024-02-26T13:45:42;1.30;;;1.30;;
15181;SDS011;7692;50.602;8.692;2024-02-26T13:48:12;1.50;;;1.50;;
15181;SDS011;7692;50.602;8.692;2024-02-26T13:50:42;1.40;;;1.40;;
15181;SDS011;7692;50.602;8.692;2024-02-26T13:53:13;1.30;;;1.30;;
15181;SDS011;7692;50.602;8.692;2024-02-26T13:55:41;1.10;;;1.10;;
15181;SDS011;7692;50.602;8.692;2024-02-26T13:58:11;1.30;;;1.30;;
15181;SDS011;7692;50.602;8.692;2024-02-26T14:00:41;1.10;;;1.10;;
15181;SDS011;7692;50.602;8.692;2024-02-26T14:03:10;1.10;;;1.10;;
15181;SDS011;7692;50.602;8.692;2024-02-26T14:05:39;1.20;;;1.20;;
15181;SDS011;7692;50.602;8.692;2024-02-26T14:08:13;1.30;;;1.30;;
15181;SDS011;7692;50.602;8.692;2024-02-26T14:10:41;1.30;;;1.30;;
15181;SDS011;7692;50.602;8.692;2024-02-26T14:13:10;1.27;;;1.27;;
15181;SDS011;7692;50.602;8.692;2024-02-26T14:15:41;1.20;;;1.20;;
15181;SDS011;7692;50.602;8.692;2024-02-26T14:18:10;1.10;;;1.10;;
15181;SDS011;7692;50.602;8.692;2024-02-26T14:20:42;1.20;;;1.20;;
15181;SDS011;7692;50.602;8.692;2024-02-26T14:23:11;1.20;;;1.20;;
15181;SDS011;7692;50.602;8.692;2024-02-26T14:25:38;1.40;;;1.40;;
15181;SDS011;7692;50.602;8.692;2024-02-26T14:28:07;1.30;;;1.30;;
15181;SDS011;7692;50.602;8.692;2024-02-26T14:30:44;1.20;;;1.20;;
15181;SDS011;7692;50.602;8.692;2024-02-26T14:33:12;1.20;;;1.20;;
15181;SDS011;7692;50.602;8.692;2024-02-26T14:35:40;1.17;;;1.17;;
15181;SDS011;7692;50.602;8.692;2024-02-26T14:38:10;1.20;;;1.20;;
15181;SDS011;7692;50.602;8.692;2024-02-26T14:40:38;1.30;;;1.30;;
15181;SDS011;7692;50.602;8.692;2024-02-26T14:43:09;1.20;;;1.20;;
15181;SDS011;7692;50.602;8.692;2024-02-26T14:45:37;1.10;;;1.10;;
15181;SDS011;7692;50.602;8.692;2024-02-26T14:48:06;1.20;;;1.20;;
15181;SDS011;7692;50.602;8.692;2024-02-26T14:50:35;1.10;;;1.10;;
15181;SDS011;7692;50.602;8.692;2024-02-26T14:53:05;1.20;;;1.20;;
15181;SDS011;7692;50.602;8.692;2024-02-26T14:55:33;1.00;;;1.00;;
15181;SDS011;7692;50.602;8.692;2024-02-26T14:58:04;1.20;;;1.20;;
15181;SDS011;7692;50.602;8.692;2024-02-26T15:00:32;1.30;;;1.30;;
15181;SDS011;7692;50.602;8.692;2024-02-26T15:03:02;1.27;;;1.27;;
15181;SDS011;7692;50.602;8.692;2024-02-26T15:05:30;1.10;;;1.10;;
15181;SDS011;7692;50.602;8.692;2024-02-26T15:07:59;1.30;;;1.30;;
15181;SDS011;7692;50.602;8.692;2024-02-26T15:10:31;1.30;;;1.30;;
15181;SDS011;7692;50.602;8.692;2024-02-26T15:12:59;1.10;;;1.10;;
15181;SDS011;7692;50.602;8.692;2024-02-26T15:15:27;1.00;;;1.00;;